Time;durP1;ratioP1;P1;durP2;ratioP2;P2;SDS_P1;SDS_P2;PMS_P1;PMS_P2;Temp;Humidity;BMP_temperature;BMP_pressure;BME280_temperature;BME280_humidity;BME280_pressure;Samples;Min_cycle;Max_cycle;Signal;HPM_P1;HPM_P2
2021/10/29 00:00:14;;;;;;;27.90;14.98;;;10.30;94.90;;;;;;5030375;28;20438;-71
2021/10/29 00:02:39;;;;;;;28.55;14.25;;;10.30;95.00;;;;;;5030710;28;20061;-71
2021/10/29 00:05:06;;;;;;;28.33;14.05;;;10.30;95.10;;;;;;5030539;28;20091;-71
2021/10/29 00:07:31;;;;;;;28.98;14.35;;;10.30;95.00;;;;;;5030309;28;20026;-71
2021/10/29 00:09:58;;;;;;;30.27;14.95;;;10.20;95.20;;;;;;5030152;28;20037;-71
2021/10/29 00:12:24;;;;;;;25.65;14.32;;;10.20;95.20;;;;;;5040473;28;20076;-71
2021/10/29 00:14:51;;;;;;;29.02;15.02;;;10.20;95.40;;;;;;5051549;28;20029;-70
2021/10/29 00:17:17;;;;;;;25.05;14.25;;;10.20;95.50;;;;;;5054176;28;20043;-71
2021/10/29 00:19:44;;;;;;;29.27;14.20;;;10.20;95.40;;;;;;5054107;28;20029;-71
2021/10/29 00:22:10;;;;;;;29.88;15.35;;;10.20;95.50;;;;;;5054349;28;20037;-72
2021/10/29 00:24:36;;;;;;;28.30;15.48;;;10.20;95.70;;;;;;5054158;28;20120;-72
2021/10/29 00:27:02;;;;;;;32.38;14.98;;;10.10;95.70;;;;;;5052919;28;20073;-71
2021/10/29 00:29:27;;;;;;;29.23;15.02;;;10.10;95.80;;;;;;5053612;28;20067;-71
2021/10/29 00:31:53;;;;;;;31.58;15.75;;;10.10;95.80;;;;;;5053712;28;20048;-71
2021/10/29 00:34:19;;;;;;;29.52;15.10;;;10.10;95.80;;;;;;5053101;28;20025;-73
2021/10/29 00:36:45;;;;;;;30.38;14.27;;;10.10;95.80;;;;;;5053920;28;20044;-71
2021/10/29 00:39:11;;;;;;;28.58;15.23;;;10.10;95.90;;;;;;5053801;28;20082;-71
2021/10/29 00:41:36;;;;;;;28.27;14.55;;;10.10;95.90;;;;;;5053767;28;20029;-71
2021/10/29 00:44:04;;;;;;;27.50;14.45;;;10.10;95.90;;;;;;5053633;28;20021;-71
2021/10/29 00:46:30;;;;;;;26.20;14.60;;;10.20;95.80;;;;;;5053394;28;20021;-71
2021/10/29 00:48:55;;;;;;;31.33;14.82;;;10.20;95.90;;;;;;5054050;28;20346;-71
2021/10/29 00:51:21;;;;;;;30.98;15.88;;;10.20;95.80;;;;;;5053701;28;20052;-72
2021/10/29 00:53:48;;;;;;;29.25;15.00;;;10.20;95.80;;;;;;5053640;28;20049;-71
2021/10/29 00:56:14;;;;;;;28.58;14.15;;;10.20;95.80;;;;;;5053579;28;20036;-70
2021/10/29 00:58:40;;;;;;;30.90;15.32;;;10.20;96.00;;;;;;5053487;28;20047;-71
2021/10/29 01:01:06;;;;;;;31.23;14.90;;;10.20;95.90;;;;;;5053808;28;20021;-71
2021/10/29 01:03:36;;;;;;;29.30;14.73;;;10.20;95.90;;;;;;5053146;28;20032;-71
2021/10/29 01:06:02;;;;;;;29.17;15.07;;;10.20;96.00;;;;;;5053429;28;20025;-71
2021/10/29 01:08:28;;;;;;;26.63;13.77;;;10.20;95.70;;;;;;5053400;28;20029;-71
2021/10/29 01:10:53;;;;;;;31.42;15.35;;;10.20;95.80;;;;;;5051870;28;20025;-71
2021/10/29 01:13:19;;;;;;;26.35;13.45;;;10.20;95.90;;;;;;5053335;28;20119;-71
2021/10/29 01:15:44;;;;;;;33.95;14.57;;;10.20;95.90;;;;;;5053223;28;20410;-71
2021/10/29 01:18:10;;;;;;;28.65;14.57;;;10.20;96.00;;;;;;5053070;28;20033;-71
2021/10/29 01:20:36;;;;;;;29.80;13.75;;;10.20;95.60;;;;;;5053138;28;20029;-72
2021/10/29 01:23:02;;;;;;;30.77;14.40;;;10.20;96.10;;;;;;5053043;28;20025;-72
2021/10/29 01:25:28;;;;;;;34.00;14.90;;;10.20;96.20;;;;;;5052924;28;20017;-72
2021/10/29 01:27:53;;;;;;;28.50;13.63;;;10.20;96.10;;;;;;5052031;28;20370;-72
2021/10/29 01:30:20;;;;;;;27.23;14.00;;;10.10;96.20;;;;;;5052910;28;20029;-71
2021/10/29 01:32:45;;;;;;;27.65;14.52;;;10.20;96.00;;;;;;5052912;28;20048;-72
2021/10/29 01:35:13;;;;;;;32.53;16.60;;;10.20;96.20;;;;;;5049330;28;20033;-71
2021/10/29 01:37:39;;;;;;;25.50;13.70;;;10.10;96.10;;;;;;5033095;28;20095;-72
2021/10/29 01:40:17;;;;;;;33.45;15.10;;;10.20;96.10;;;;;;5033286;28;20072;-72
2021/10/29 01:42:43;;;;;;;;;;;10.20;96.00;;;;;;5033211;28;20331;-72
2021/10/29 01:45:09;;;;;;;33.08;14.27;;;10.20;96.10;;;;;;5032568;28;19988;-72
2021/10/29 01:47:35;;;;;;;29.83;13.68;;;10.20;95.80;;;;;;5032768;28;20030;-72
2021/10/29 01:50:02;;;;;;;27.83;14.27;;;10.20;95.80;;;;;;5032733;28;20371;-72
2021/10/29 01:52:28;;;;;;;32.15;14.73;;;10.20;96.10;;;;;;5032999;28;20025;-72
2021/10/29 01:54:54;;;;;;;27.17;14.95;;;10.10;96.10;;;;;;5032509;28;20030;-72
2021/10/29 01:57:20;;;;;;;27.13;14.23;;;10.20;96.20;;;;;;5032372;28;20033;-69
2021/10/29 01:59:46;;;;;;;32.00;15.02;;;10.20;95.90;;;;;;5032658;28;20056;-71
2021/10/29 02:02:12;;;;;;;36.88;15.18;;;10.20;96.00;;;;;;5032407;28;20034;-70
2021/10/29 02:04:38;;;;;;;28.30;14.57;;;10.20;96.10;;;;;;5032158;28;20044;-70
2021/10/29 02:07:03;;;;;;;28.27;13.40;;;10.20;96.10;;;;;;5032731;28;20030;-71
2021/10/29 02:09:29;;;;;;;33.42;14.68;;;10.10;96.30;;;;;;5031850;28;20460;-71
2021/10/29 02:11:54;;;;;;;28.83;14.18;;;10.10;96.30;;;;;;5031703;28;20088;-71
2021/10/29 02:14:20;;;;;;;33.50;15.82;;;10.10;96.40;;;;;;5031697;28;20080;-71
2021/10/29 02:16:46;;;;;;;35.35;14.85;;;10.00;96.30;;;;;;5032067;28;20022;-71
2021/10/29 02:19:12;;;;;;;27.63;13.25;;;10.10;96.40;;;;;;5032274;28;20035;-71
2021/10/29 02:21:37;;;;;;;30.40;14.32;;;10.10;96.30;;;;;;5031991;28;20128;-70
2021/10/29 02:24:04;;;;;;;33.53;13.82;;;10.10;96.30;;;;;;5032032;28;20116;-71
2021/10/29 02:26:29;;;;;;;29.50;14.50;;;10.10;96.30;;;;;;5031915;28;20444;-70
2021/10/29 02:28:55;;;;;;;33.15;15.15;;;10.10;96.50;;;;;;5030801;28;20108;-71
2021/10/29 02:31:21;;;;;;;34.15;15.10;;;10.10;96.40;;;;;;5032477;28;20061;-71
2021/10/29 02:33:47;;;;;;;34.97;14.60;;;10.10;96.40;;;;;;5031833;28;20041;-71
2021/10/29 02:36:12;;;;;;;29.20;14.40;;;10.10;96.50;;;;;;5031743;28;20337;-71
2021/10/29 02:38:38;;;;;;;34.58;15.52;;;10.10;96.60;;;;;;5031449;28;20358;-71
2021/10/29 02:41:04;;;;;;;35.33;16.10;;;10.10;96.70;;;;;;5031714;28;20408;-71
2021/10/29 02:43:30;;;;;;;33.05;15.45;;;10.00;96.70;;;;;;5031464;28;20025;-72
2021/10/29 02:45:56;;;;;;;37.45;16.17;;;10.00;96.80;;;;;;5031874;28;20056;-71
2021/10/29 02:48:22;;;;;;;33.15;14.80;;;10.00;96.70;;;;;;5030152;28;20124;-71
2021/10/29 02:50:48;;;;;;;35.20;15.48;;;10.00;96.80;;;;;;5031338;28;20452;-72
2021/10/29 02:53:14;;;;;;;37.83;15.93;;;10.00;96.80;;;;;;5031474;28;20025;-72
2021/10/29 02:55:39;;;;;;;38.33;16.40;;;10.00;96.80;;;;;;5031178;28;20025;-72
2021/10/29 02:58:05;;;;;;;32.58;15.23;;;10.00;96.90;;;;;;5031937;28;20040;-72
2021/10/29 03:00:32;;;;;;;29.70;14.48;;;10.00;96.70;;;;;;5031373;28;20021;-71
2021/10/29 03:02:58;;;;;;;33.55;14.55;;;10.00;96.70;;;;;;5031386;28;20030;-69
2021/10/29 03:05:23;;;;;;;30.25;14.95;;;10.10;96.70;;;;;;5031032;28;20059;-70
2021/10/29 03:07:49;;;;;;;33.60;17.08;;;10.00;96.60;;;;;;5029700;28;20045;-70
2021/10/29 03:10:15;;;;;;;36.17;14.82;;;10.10;96.30;;;;;;5031564;28;20099;-71
2021/10/29 03:12:41;;;;;;;32.28;16.65;;;10.10;96.40;;;;;;5031134;28;20064;-70
2021/10/29 03:15:09;;;;;;;33.60;14.82;;;10.10;96.50;;;;;;5031175;28;20030;-71
2021/10/29 03:17:34;;;;;;;35.30;15.70;;;10.10;96.40;;;;;;5031087;28;20083;-72
2021/10/29 03:20:00;;;;;;;38.17;16.17;;;10.10;96.60;;;;;;5031029;28;20025;-71
2021/10/29 03:22:26;;;;;;;34.05;15.25;;;10.00;96.60;;;;;;5031303;28;20597;-72
2021/10/29 03:24:52;;;;;;;36.97;15.88;;;10.00;96.60;;;;;;5030964;28;20038;-72
2021/10/29 03:27:19;;;;;;;31.48;14.10;;;10.10;96.30;;;;;;5029668;28;20064;-72
2021/10/29 03:29:45;;;;;;;28.13;13.82;;;10.10;96.50;;;;;;5030953;28;20029;-71
2021/10/29 03:32:11;;;;;;;32.72;15.20;;;10.10;96.50;;;;;;5030998;28;20031;-72
2021/10/29 03:34:36;;;;;;;31.85;14.93;;;10.10;96.70;;;;;;5030847;28;20028;-72
2021/10/29 03:37:03;;;;;;;32.35;16.48;;;10.10;96.40;;;;;;5031349;28;20056;-72
2021/10/29 03:39:33;;;;;;;32.00;14.68;;;10.10;96.40;;;;;;5030658;28;20049;-72
2021/10/29 03:42:07;;;;;;;33.58;15.82;;;10.00;96.50;;;;;;5030787;28;20033;-72
2021/10/29 03:47:19;;;;;;;30.30;13.98;;;10.10;96.40;;;;;;5030976;28;20048;-73
2021/10/29 03:49:54;;;;;;;34.78;15.07;;;10.10;96.60;;;;;;5030693;28;20018;-72
2021/10/29 03:52:27;;;;;;;33.05;15.20;;;10.10;96.40;;;;;;5035303;28;20025;-72
2021/10/29 03:54:56;;;;;;;29.75;15.32;;;10.00;96.50;;;;;;5034791;28;20079;-72
2021/10/29 03:57:25;;;;;;;35.28;15.88;;;10.00;96.50;;;;;;5034865;28;20033;-71
2021/10/29 03:59:55;;;;;;;32.00;14.88;;;10.10;96.60;;;;;;5033555;28;20030;-71
2021/10/29 04:02:21;;;;;;;30.55;14.65;;;10.00;96.70;;;;;;5034748;28;20033;-71
2021/10/29 04:04:47;;;;;;;28.35;15.07;;;10.00;96.70;;;;;;5034681;28;20021;-71
2021/10/29 04:07:13;;;;;;;32.90;15.40;;;10.00;96.80;;;;;;5035070;28;20052;-71
2021/10/29 04:09:39;;;;;;;36.38;15.68;;;10.00;96.90;;;;;;5033324;28;20045;-72
2021/10/29 04:12:05;;;;;;;33.03;15.68;;;10.10;96.80;;;;;;5034615;28;20045;-71
2021/10/29 04:14:31;;;;;;;33.40;15.88;;;10.00;96.90;;;;;;5034250;28;20045;-72
2021/10/29 04:16:57;;;;;;;32.30;15.90;;;10.00;96.90;;;;;;5034273;28;20030;-72
2021/10/29 04:19:23;;;;;;;32.25;15.68;;;10.00;96.90;;;;;;5034669;28;20071;-72
2021/10/29 04:21:49;;;;;;;34.15;16.02;;;10.00;97.10;;;;;;5034148;28;20035;-73
2021/10/29 04:24:15;;;;;;;36.72;16.52;;;10.00;97.10;;;;;;5034171;28;20025;-73
2021/10/29 04:26:41;;;;;;;36.53;17.00;;;10.00;97.00;;;;;;5033988;28;20037;-71
2021/10/29 04:29:16;;;;;;;31.13;15.57;;;10.00;97.20;;;;;;5033948;28;20042;-71
2021/10/29 04:31:49;;;;;;;33.17;15.80;;;10.00;97.20;;;;;;5033875;28;20056;-71
2021/10/29 04:34:25;;;;;;;36.05;17.15;;;10.00;97.20;;;;;;5034561;28;20021;-72
2021/10/29 04:36:55;;;;;;;33.47;16.25;;;10.00;97.20;;;;;;5033923;28;20045;-72
2021/10/29 04:39:21;;;;;;;36.47;17.48;;;10.00;97.20;;;;;;5034215;28;20363;-71
2021/10/29 04:41:50;;;;;;;39.10;16.67;;;10.00;97.20;;;;;;5033905;28;20462;-71
2021/10/29 04:44:18;;;;;;;32.40;16.20;;;10.00;97.20;;;;;;5033851;28;20033;-71
2021/10/29 04:46:44;;;;;;;35.42;16.52;;;10.00;97.20;;;;;;5033860;28;20034;-73
2021/10/29 04:49:10;;;;;;;36.90;17.45;;;10.00;97.20;;;;;;5034091;28;20497;-72
2021/10/29 04:51:35;;;;;;;39.15;16.70;;;10.00;97.40;;;;;;5032434;28;20139;-71
2021/10/29 04:54:01;;;;;;;34.13;17.23;;;10.00;97.50;;;;;;5033614;28;20053;-72
2021/10/29 04:56:27;;;;;;;36.42;17.88;;;10.00;97.50;;;;;;5034069;28;20167;-71
2021/10/29 04:58:53;;;;;;;37.42;17.40;;;10.00;97.60;;;;;;5033226;28;20026;-71
2021/10/29 05:01:18;;;;;;;38.72;17.90;;;10.00;97.60;;;;;;5032476;28;20100;-71
2021/10/29 05:03:44;;;;;;;43.22;17.75;;;10.10;97.50;;;;;;5033428;28;20451;-71
2021/10/29 05:06:11;;;;;;;40.03;18.38;;;10.00;97.50;;;;;;5033214;28;20056;-70
2021/10/29 05:08:37;;;;;;;36.55;18.17;;;10.00;97.60;;;;;;5033242;28;20045;-72
2021/10/29 05:11:04;;;;;;;39.35;17.90;;;10.00;97.50;;;;;;5033455;28;20068;-72
2021/10/29 05:13:29;;;;;;;37.30;17.75;;;10.10;97.60;;;;;;5033255;28;20053;-72
2021/10/29 05:15:55;;;;;;;38.08;18.00;;;10.00;97.50;;;;;;5032550;28;20083;-71
2021/10/29 05:18:21;;;;;;;43.20;19.02;;;10.10;97.60;;;;;;5032978;28;20450;-70
2021/10/29 05:20:48;;;;;;;40.33;18.63;;;10.10;97.50;;;;;;5033071;28;20034;-72
2021/10/29 05:23:14;;;;;;;38.55;17.60;;;10.10;97.60;;;;;;5033129;28;20092;-72
2021/10/29 05:25:40;;;;;;;36.85;17.60;;;10.10;97.50;;;;;;5032601;28;20079;-72
2021/10/29 05:28:06;;;;;;;37.13;18.00;;;10.20;97.50;;;;;;5032835;28;20440;-71
2021/10/29 05:30:32;;;;;;;39.90;18.75;;;10.20;97.40;;;;;;5032069;28;20050;-72
2021/10/29 05:32:57;;;;;;;38.75;18.00;;;10.20;97.30;;;;;;5032265;28;20100;-71
2021/10/29 05:35:23;;;;;;;40.03;16.67;;;10.20;97.30;;;;;;5032611;28;20317;-73
2021/10/29 05:37:49;;;;;;;38.35;18.00;;;10.20;97.40;;;;;;5032064;28;20037;-72
2021/10/29 05:40:14;;;;;;;39.67;18.70;;;10.20;97.40;;;;;;5031198;28;20083;-71
2021/10/29 05:42:40;;;;;;;40.10;19.80;;;10.20;97.40;;;;;;5031834;28;20037;-71
2021/10/29 05:45:09;;;;;;;37.33;18.08;;;10.20;97.40;;;;;;5031819;28;20383;-71
2021/10/29 05:47:37;;;;;;;40.42;19.30;;;10.20;97.50;;;;;;5031781;28;20037;-73
2021/10/29 05:50:04;;;;;;;;;;;10.20;97.50;;;;;;5032331;28;20033;-71
2021/10/29 05:52:30;;;;;;;40.85;17.17;;;10.20;97.40;;;;;;5031245;28;19905;-72
2021/10/29 05:57:23;;;;;;;41.28;19.50;;;10.20;97.40;;;;;;5031196;28;20425;-71
2021/10/29 05:59:51;;;;;;;37.28;17.80;;;10.20;97.40;;;;;;5031079;28;20068;-71
2021/10/29 06:02:17;;;;;;;35.10;17.50;;;10.20;97.40;;;;;;5031224;28;20140;-72
2021/10/29 06:04:44;;;;;;;35.15;17.00;;;10.20;97.50;;;;;;5030946;28;20105;-70
2021/10/29 06:07:09;;;;;;;39.03;17.55;;;10.20;97.60;;;;;;5031148;28;20079;-71
2021/10/29 06:09:35;;;;;;;37.15;17.58;;;10.20;97.60;;;;;;5030985;28;20337;-71
2021/10/29 06:12:01;;;;;;;37.72;17.73;;;10.20;97.50;;;;;;5029944;28;20148;-70
2021/10/29 06:14:28;;;;;;;41.22;18.42;;;10.10;97.60;;;;;;5030716;28;20501;-70
2021/10/29 06:16:58;;;;;;;42.63;18.55;;;10.10;97.60;;;;;;5030872;28;20033;-73
2021/10/29 06:19:25;;;;;;;34.03;17.83;;;10.10;97.80;;;;;;5031200;28;20530;-73
2021/10/29 06:24:32;;;;;;;39.53;19.58;;;10.10;97.90;;;;;;5030789;28;20113;-70
2021/10/29 06:27:07;;;;;;;40.97;19.20;;;10.10;97.90;;;;;;5031114;28;20112;-71
2021/10/29 06:29:32;;;;;;;41.63;19.15;;;10.10;97.90;;;;;;5031229;28;20056;-72
2021/10/29 06:31:58;;;;;;;37.58;17.92;;;10.10;98.10;;;;;;5031207;28;20460;-70
2021/10/29 06:34:23;;;;;;;35.75;18.08;;;10.00;98.00;;;;;;5032163;28;20026;-71
2021/10/29 06:36:49;;;;;;;41.42;19.35;;;10.10;98.00;;;;;;5030975;28;20405;-72
2021/10/29 06:39:17;;;;;;;41.50;19.80;;;10.10;98.00;;;;;;5031207;28;20028;-71
2021/10/29 06:41:43;;;;;;;49.13;21.45;;;10.10;98.00;;;;;;5031488;28;20055;-74
2021/10/29 06:46:44;;;;;;;43.88;20.73;;;10.20;98.10;;;;;;5031427;28;20105;-72
2021/10/29 06:49:15;;;;;;;40.20;19.02;;;10.20;97.90;;;;;;5031242;28;20025;-72
2021/10/29 07:00:12;;;;;;;35.03;17.77;;;10.30;97.80;;;;;;5031010;28;20359;-70
2021/10/29 07:03:09;;;;;;;36.63;18.00;;;10.40;97.70;;;;;;5030670;28;20095;-71
2021/10/29 07:11:35;;;;;;;39.83;18.35;;;10.40;97.50;;;;;;5030557;28;20033;-75
2021/10/29 07:41:16;;;;;;;32.28;16.17;;;10.90;97.10;;;;;;5030373;28;20076;-77
2021/10/29 07:43:49;;;;;;;41.63;18.20;;;10.90;97.00;;;;;;5030383;28;20025;-83
2021/10/29 07:46:15;;;;;;;35.45;16.63;;;11.00;96.90;;;;;;5030718;28;20022;-77
2021/10/29 07:48:42;;;;;;;33.25;16.17;;;11.10;96.80;;;;;;5030137;28;20140;-76
2021/10/29 07:51:08;;;;;;;35.87;16.93;;;11.10;96.80;;;;;;5030288;28;20087;-76
2021/10/29 07:53:35;;;;;;;30.83;16.30;;;11.20;96.70;;;;;;5030181;28;20033;-75
2021/10/29 07:56:02;;;;;;;38.03;18.33;;;11.20;96.70;;;;;;5030150;28;20040;-75
2021/10/29 07:58:30;;;;;;;42.28;18.60;;;11.30;96.60;;;;;;5030608;28;20021;-76
2021/10/29 08:00:56;;;;;;;;;;;11.30;96.50;;;;;;5031027;28;20459;-75
2021/10/29 08:03:22;;;;;;;34.25;17.15;;;11.30;96.50;;;;;;5030020;28;19939;-76
2021/10/29 08:05:47;;;;;;;35.70;16.05;;;11.40;96.40;;;;;;5028738;28;20044;-76
2021/10/29 08:08:16;;;;;;;31.85;15.02;;;11.50;96.30;;;;;;5030100;28;20353;-74
2021/10/29 08:10:42;;;;;;;30.38;15.52;;;11.60;96.30;;;;;;5030259;28;20025;-75
2021/10/29 08:13:08;;;;;;;28.15;14.27;;;11.50;96.20;;;;;;5028856;28;20344;-72
2021/10/29 08:15:35;;;;;;;29.23;14.90;;;11.60;96.20;;;;;;5029996;28;20049;-72
2021/10/29 08:18:04;;;;;;;31.63;14.90;;;11.70;96.10;;;;;;5029921;28;20030;-71
2021/10/29 08:20:29;;;;;;;28.88;14.35;;;11.80;96.10;;;;;;5030032;28;20030;-70
2021/10/29 08:22:57;;;;;;;28.45;14.13;;;11.90;95.90;;;;;;5029773;28;20447;-71
2021/10/29 08:25:23;;;;;;;27.00;13.55;;;11.90;95.80;;;;;;5030181;28;20033;-73
2021/10/29 08:27:50;;;;;;;25.13;13.32;;;12.10;95.80;;;;;;5029902;28;20025;-72
2021/10/29 08:30:16;;;;;;;25.92;13.45;;;12.20;95.70;;;;;;5029805;28;20120;-73
2021/10/29 08:32:43;;;;;;;28.20;13.15;;;12.40;95.40;;;;;;5029871;28;20112;-73
2021/10/29 08:35:10;;;;;;;33.55;14.00;;;12.60;95.20;;;;;;5030240;28;20049;-73
2021/10/29 08:37:36;;;;;;;30.52;13.35;;;12.70;95.00;;;;;;5033674;28;20021;-73
2021/10/29 08:40:05;;;;;;;26.15;13.45;;;12.70;94.90;;;;;;5034005;28;20026;-75
2021/10/29 08:42:32;;;;;;;25.92;13.35;;;12.80;94.80;;;;;;5033280;28;20121;-74
2021/10/29 08:44:58;;;;;;;24.70;12.30;;;12.90;94.70;;;;;;5032489;28;20049;-74
2021/10/29 08:47:25;;;;;;;27.60;13.18;;;13.00;94.40;;;;;;5033373;28;20063;-74
2021/10/29 08:49:51;;;;;;;26.75;12.45;;;13.10;94.40;;;;;;5033480;28;20106;-75
2021/10/29 08:52:22;;;;;;;25.90;13.02;;;13.20;94.30;;;;;;5033546;28;20026;-74
2021/10/29 08:54:50;;;;;;;26.73;12.80;;;13.10;94.00;;;;;;5033036;28;20049;-73
2021/10/29 08:57:17;;;;;;;25.50;13.02;;;13.10;94.00;;;;;;5032004;28;20026;-73
2021/10/29 08:59:47;;;;;;;22.48;12.90;;;13.20;94.00;;;;;;5032755;28;20041;-74
2021/10/29 09:02:36;;;;;;;22.23;12.45;;;13.20;93.90;;;;;;5033086;28;20022;-73
2021/10/29 09:07:43;;;;;;;24.58;12.02;;;13.30;93.80;;;;;;5033298;28;20025;-72
2021/10/29 09:16:29;;;;;;;22.08;11.05;;;13.60;93.50;;;;;;5032871;28;20490;-74
2021/10/29 09:33:07;;;;;;;16.33;9.25;;;14.30;92.90;;;;;;5032443;28;20060;-75
2021/10/29 09:35:36;;;;;;;19.05;9.43;;;14.40;92.70;;;;;;5032557;28;20030;-74
2021/10/29 09:38:13;;;;;;;13.27;7.97;;;14.50;92.40;;;;;;5032487;28;20371;-74
2021/10/29 09:41:01;;;;;;;14.47;8.37;;;14.70;92.20;;;;;;5032563;28;20022;-74
2021/10/29 09:43:33;;;;;;;16.70;8.05;;;15.30;92.10;;;;;;5032853;28;20021;-74
2021/10/29 09:46:04;;;;;;;15.23;8.38;;;16.60;91.70;;;;;;5032631;28;20104;-75
2021/10/29 09:48:45;;;;;;;13.88;7.50;;;17.90;89.70;;;;;;5031626;28;20128;-75
2021/10/29 09:51:15;;;;;;;12.27;7.97;;;19.20;86.20;;;;;;5031097;28;20112;-73
2021/10/29 09:56:45;;;;;;;15.75;8.40;;;19.40;83.20;;;;;;5032220;28;20509;-71
2021/10/29 09:58:59;;;;;;;14.30;8.02;;;19.20;83.50;;;;;;5031537;28;20367;-71
2021/10/29 10:01:27;;;;;;;14.50;7.65;;;19.90;82.00;;;;;;5031500;28;20017;-75
2021/10/29 10:03:53;;;;;;;;;;;20.80;81.30;;;;;;5032567;28;20037;-75
2021/10/29 10:06:23;;;;;;;11.18;6.70;;;21.50;77.30;;;;;;5030894;28;19909;-76
2021/10/29 10:08:53;;;;;;;11.63;5.95;;;22.60;79.40;;;;;;5031937;28;20049;-75
2021/10/29 10:11:21;;;;;;;12.57;6.93;;;23.30;76.50;;;;;;5031803;28;20452;-76
2021/10/29 10:13:48;;;;;;;10.10;6.20;;;24.20;74.50;;;;;;5031954;28;20037;-75
2021/10/29 10:16:15;;;;;;;12.13;5.78;;;24.40;69.70;;;;;;5032232;28;20055;-75
2021/10/29 10:18:40;;;;;;;11.65;5.80;;;24.80;69.60;;;;;;5031965;28;20025;-76
2021/10/29 10:21:12;;;;;;;9.40;5.90;;;25.20;67.30;;;;;;5031721;28;20107;-75
2021/10/29 10:23:42;;;;;;;10.70;5.35;;;25.20;65.60;;;;;;5031612;28;20065;-75
2021/10/29 10:26:29;;;;;;;10.13;5.30;;;24.70;63.70;;;;;;5031817;28;20029;-74
2021/10/29 10:48:43;;;;;;;;;;;26.40;57.00;;;;;;5031909;28;20037;-73
2021/10/29 10:52:10;;;;;;;8.82;4.15;;;26.30;57.60;;;;;;5031276;28;19909;-73
2021/10/29 10:57:19;;;;;;;13.02;4.45;;;26.80;56.70;;;;;;5031048;28;20104;-73
2021/10/29 11:11:11;;;;;;;9.77;4.70;;;25.00;56.80;;;;;;5031032;28;20128;-71
2021/10/29 11:13:42;;;;;;;15.55;4.28;;;24.70;57.00;;;;;;5030201;28;20721;-71
2021/10/29 11:16:27;;;;;;;10.65;4.28;;;24.40;57.10;;;;;;5031005;28;20025;-71
2021/10/29 11:19:04;;;;;;;10.43;4.90;;;24.20;57.50;;;;;;5030851;28;20031;-71
2021/10/29 11:21:38;;;;;;;12.30;4.40;;;23.50;58.20;;;;;;5030505;28;20025;-72
2021/10/29 11:24:14;;;;;;;7.78;3.72;;;22.80;58.50;;;;;;5030784;28;20151;-73
2021/10/29 11:26:47;;;;;;;8.00;4.30;;;22.10;60.30;;;;;;5030610;28;20033;-72
2021/10/29 11:29:13;;;;;;;7.63;3.30;;;21.30;61.10;;;;;;5030560;28;20052;-72
2021/10/29 11:31:48;;;;;;;5.90;4.05;;;21.10;62.00;;;;;;5029340;28;20090;-71
2021/10/29 11:34:16;;;;;;;9.88;4.28;;;20.90;62.50;;;;;;5030758;28;20087;-72
2021/10/29 11:36:51;;;;;;;7.90;4.13;;;20.50;63.20;;;;;;5030575;28;20033;-71
2021/10/29 11:39:19;;;;;;;6.43;4.05;;;20.50;63.50;;;;;;5030211;28;20033;-72
2021/10/29 11:41:47;;;;;;;7.15;3.88;;;19.70;64.70;;;;;;5030486;28;20124;-73
2021/10/29 11:44:16;;;;;;;7.70;3.17;;;19.50;65.70;;;;;;5029442;28;20033;-73
2021/10/29 11:46:43;;;;;;;8.43;3.83;;;19.40;66.00;;;;;;5030448;28;20106;-69
2021/10/29 11:49:14;;;;;;;7.70;3.90;;;19.20;66.60;;;;;;5030982;28;20036;-69
2021/10/29 11:51:41;;;;;;;10.50;3.75;;;19.00;67.00;;;;;;5030576;28;20036;-72
2021/10/29 11:56:47;;;;;;;5.15;3.58;;;18.90;67.60;;;;;;5030385;28;20068;-72
2021/10/29 12:07:15;;;;;;;;;;;;;;;;;;;;;
2021/10/29 12:09:40;;;;;;;7.35;3.22;;;18.80;69.00;;;;;;5030181;28;20392;-73
2021/10/29 12:12:11;;;;;;;9.90;4.10;;;18.90;69.20;;;;;;5033216;28;20077;-73
2021/10/29 12:14:39;;;;;;;6.72;3.78;;;18.80;69.30;;;;;;5033842;28;20037;-74
2021/10/29 12:17:23;;;;;;;8.70;4.65;;;18.70;69.30;;;;;;5033857;28;20099;-73
2021/10/29 12:19:54;;;;;;;6.40;3.63;;;18.70;70.20;;;;;;5034058;28;20072;-74
2021/10/29 12:24:54;;;;;;;6.00;3.42;;;18.70;70.40;;;;;;5033755;28;20120;-72
2021/10/29 12:27:27;;;;;;;8.75;4.00;;;18.70;70.80;;;;;;5033722;28;20362;-73
2021/10/29 12:30:19;;;;;;;5.72;3.83;;;18.60;71.00;;;;;;5033795;28;20506;-69
2021/10/29 12:33:18;;;;;;;5.50;3.33;;;18.50;71.30;;;;;;5033572;28;20064;-69
2021/10/29 13:03:44;;;;;;;6.10;4.13;;;18.10;73.20;;;;;;5032985;28;20053;-69
2021/10/29 13:06:14;;;;;;;6.30;3.88;;;18.00;73.50;;;;;;5032074;28;20363;-69
2021/10/29 13:08:40;;;;;;;10.05;4.00;;;17.90;73.60;;;;;;5033152;28;20038;-69
2021/10/29 13:11:11;;;;;;;7.40;3.55;;;18.00;73.70;;;;;;5031810;28;20022;-72
2021/10/29 13:13:42;;;;;;;8.10;4.70;;;18.00;73.80;;;;;;5032608;28;20072;-73
2021/10/29 13:16:11;;;;;;;7.95;4.03;;;17.80;74.00;;;;;;5033366;28;20414;-72
2021/10/29 13:34:44;;;;;;;6.80;3.35;;;17.70;75.70;;;;;;5033194;28;20040;-74
2021/10/29 13:53:24;;;;;;;9.18;3.20;;;17.50;76.80;;;;;;5032532;28;20117;-77
2021/10/29 13:56:02;;;;;;;8.43;3.28;;;17.30;76.50;;;;;;5032677;28;20048;-75
2021/10/29 13:58:54;;;;;;;8.20;3.10;;;17.20;76.70;;;;;;5032765;28;20031;-72
2021/10/29 14:16:27;;;;;;;7.65;3.60;;;17.10;77.80;;;;;;5033386;28;20124;-75
2021/10/29 14:29:05;;;;;;;7.55;3.22;;;16.60;79.10;;;;;;5031698;28;20053;-74
2021/10/29 14:31:42;;;;;;;9.30;5.93;;;16.60;78.80;;;;;;5031326;28;20017;-74
2021/10/29 14:34:21;;;;;;;11.50;6.93;;;16.60;78.80;;;;;;5031809;28;20018;-72
2021/10/29 14:36:53;;;;;;;6.47;3.63;;;16.50;79.40;;;;;;5031225;28;20095;-72
2021/10/29 14:39:28;;;;;;;11.13;6.38;;;16.60;78.70;;;;;;5031513;28;20483;-74
2021/10/29 14:42:00;;;;;;;8.27;4.32;;;16.60;79.30;;;;;;5031148;28;20045;-73
2021/10/29 14:44:36;;;;;;;6.93;4.00;;;16.50;79.50;;;;;;5030536;28;20049;-73
2021/10/29 14:47:44;;;;;;;22.88;7.55;;;16.50;79.70;;;;;;5031445;28;20029;-76
2021/10/29 15:30:09;;;;;;;;;;;;;;;;;;;;;
2021/10/29 15:32:44;;;;;;;9.50;5.60;;;16.00;82.90;;;;;;5030595;28;20375;-73
2021/10/29 15:46:07;;;;;;;7.47;4.00;;;15.80;82.70;;;;;;5029971;28;20041;-72
2021/10/29 15:48:43;;;;;;;6.90;4.63;;;15.80;83.10;;;;;;5030432;28;20112;-72
2021/10/29 15:51:09;;;;;;;12.00;5.63;;;15.70;83.10;;;;;;5030516;28;20029;-73
2021/10/29 15:53:35;;;;;;;7.80;3.50;;;15.70;82.90;;;;;;5030537;28;20356;-74
2021/10/29 15:56:10;;;;;;;6.65;3.30;;;15.60;82.80;;;;;;5030479;28;20029;-74
2021/10/29 15:58:47;;;;;;;8.60;4.10;;;15.70;83.40;;;;;;5029907;28;20022;-74
2021/10/29 16:19:36;;;;;;;6.32;3.80;;;15.60;83.60;;;;;;5030439;28;20367;-74
2021/10/29 16:22:08;;;;;;;6.85;4.13;;;15.60;82.90;;;;;;5030474;28;20021;-74
2021/10/29 16:24:37;;;;;;;12.70;7.15;;;15.60;83.40;;;;;;5029909;28;20022;-73
2021/10/29 16:27:03;;;;;;;11.40;5.60;;;15.60;83.70;;;;;;5030114;28;20492;-73
2021/10/29 16:29:29;;;;;;;15.02;5.05;;;15.60;83.70;;;;;;5028779;28;20041;-74
2021/10/29 16:31:56;;;;;;;9.35;3.90;;;15.60;84.30;;;;;;5028680;28;20037;-72
2021/10/29 16:34:22;;;;;;;11.80;4.10;;;15.60;83.70;;;;;;5030515;28;20035;-72
2021/10/29 16:36:48;;;;;;;9.20;4.13;;;15.50;84.30;;;;;;5029785;28;20164;-72
2021/10/29 16:39:14;;;;;;;7.47;3.10;;;15.50;84.50;;;;;;5028726;28;20117;-73
2021/10/29 16:41:41;;;;;;;5.32;3.47;;;15.50;84.00;;;;;;5029670;28;20109;-72
2021/10/29 16:44:06;;;;;;;8.63;4.32;;;15.40;84.00;;;;;;5029849;28;20026;-72
2021/10/29 16:46:32;;;;;;;6.35;3.85;;;15.40;84.70;;;;;;5029680;28;20558;-72
2021/10/29 16:48:57;;;;;;;6.72;3.75;;;15.40;84.90;;;;;;5030034;28;20444;-72
2021/10/29 16:51:25;;;;;;;8.75;3.70;;;15.40;84.00;;;;;;5029628;28;20117;-72
2021/10/29 16:53:51;;;;;;;11.02;4.65;;;15.40;84.30;;;;;;5029762;28;20034;-72
2021/10/29 16:56:16;;;;;;;12.45;4.47;;;15.40;84.80;;;;;;5030174;28;20021;-72
2021/10/29 16:58:42;;;;;;;10.30;4.93;;;15.30;85.00;;;;;;5032170;28;20333;-73
2021/10/29 17:01:08;;;;;;;7.68;3.88;;;15.40;85.10;;;;;;5033507;28;20068;-72
2021/10/29 17:03:34;;;;;;;10.05;4.20;;;15.40;84.60;;;;;;5033151;28;20071;-72
2021/10/29 17:06:00;;;;;;;7.45;3.97;;;15.40;84.60;;;;;;5032909;28;20375;-73
2021/10/29 17:08:26;;;;;;;8.38;4.65;;;15.30;85.00;;;;;;5033026;28;20045;-73
2021/10/29 17:10:52;;;;;;;5.82;3.75;;;15.30;85.50;;;;;;5033407;28;20037;-72
2021/10/29 17:13:18;;;;;;;6.30;4.15;;;15.20;85.50;;;;;;5033086;28;20408;-73
2021/10/29 17:15:43;;;;;;;6.15;3.67;;;15.20;85.90;;;;;;5031878;28;20325;-72
2021/10/29 17:18:10;;;;;;;5.60;3.65;;;15.20;86.00;;;;;;5032858;28;20097;-73
2021/10/29 17:20:36;;;;;;;7.00;3.88;;;15.20;86.20;;;;;;5032735;28;20124;-73